^^
B2 Weather Station Historical Data
Daily Summary for January 3, 2017 Units:  Both    English   Metric
Daily Weekly Monthly Yearly Custom
  High: Low: Average:
Temperature: 40.8 °F /  4.9 °C 21.2 °F /  -6 °C 36.4 °F /  2.4 °C
Dew Point: 40.0 °F /  4.4 °C 16.8 °F /  -8.4 °C 35.1 °F /  1.7 °C
Humidity: 97% 82% 95%
Wind Speed: 24.2mph /  38.9km/h - 7.8mph /  12.6km/h
Wind Gust: 24.2mph /  38.9km/h - -
Wind- - West
Pressure: 29.96 in /  1014.4 hPa 29.76 in /  1007.7 hPa -
Precipitation: 0.17 in /  4.32 mm    
Historical Graphs
 
 
Tabular Data for January 3, 2017
Time Temperature Dew Point Pressure Wind Wind Speed Wind Gust Humidity Rainfall Rate (Hourly) solar
00:04 38.7 °F /  3.7 °C 37.9 °F /  3.3 °C 29.87in /  1011.4hPa Calm     97% 0.00in /  0mm 0.0 W/m2
00:09 38.8 °F /  3.8 °C 38.0 °F /  3.3 °C 29.86in /  1011.1hPa North 3.5mph /  5.6km/h 3.5mph /  5.6km/h 97% 0.00in /  0mm 0.0 W/m2
00:14 38.7 °F /  3.7 °C 37.9 °F /  3.3 °C 29.86in /  1011.1hPa Calm     97% 0.00in /  0mm 0.0 W/m2
00:19 38.8 °F /  3.8 °C 38.0 °F /  3.3 °C 29.86in /  1011.1hPa Calm     97% 0.00in /  0mm 0.0 W/m2
00:24 38.8 °F /  3.8 °C 38.0 °F /  3.3 °C 29.86in /  1011.1hPa Calm     97% 0.00in /  0mm 0.0 W/m2
00:29 38.8 °F /  3.8 °C 38.0 °F /  3.3 °C 29.85in /  1010.7hPa Calm     97% 0.00in /  0mm 0.0 W/m2
00:34 38.6 °F /  3.7 °C 37.8 °F /  3.2 °C 29.85in /  1010.7hPa Calm     97% 0.00in /  0mm 0.0 W/m2
00:39 38.7 °F /  3.7 °C 37.9 °F /  3.3 °C 29.85in /  1010.7hPa Calm     97% 0.00in /  0mm 0.0 W/m2
00:44 38.7 °F /  3.7 °C 37.9 °F /  3.3 °C 29.85in /  1010.7hPa Calm     97% 0.00in /  0mm 0.0 W/m2
00:49 38.7 °F /  3.7 °C 37.9 °F /  3.3 °C 29.84in /  1010.4hPa Calm     97% 0.00in /  0mm 0.0 W/m2
00:54 38.7 °F /  3.7 °C 37.9 °F /  3.3 °C 29.84in /  1010.4hPa Calm     97% 0.00in /  0mm 0.0 W/m2
00:59 38.7 °F /  3.7 °C 37.9 °F /  3.3 °C 29.84in /  1010.4hPa Calm     97% 0.00in /  0mm 0.0 W/m2
01:04 38.8 °F /  3.8 °C 37.8 °F /  3.2 °C 29.84in /  1010.4hPa Calm     96% 0.00in /  0mm 0.0 W/m2
01:09 38.8 °F /  3.8 °C 37.8 °F /  3.2 °C 29.84in /  1010.4hPa Calm     96% 0.00in /  0mm 0.0 W/m2
01:14 38.8 °F /  3.8 °C 37.8 °F /  3.2 °C 29.84in /  1010.4hPa Calm     96% 0.00in /  0mm 0.0 W/m2
01:19 38.8 °F /  3.8 °C 37.8 °F /  3.2 °C 29.84in /  1010.4hPa North 3.5mph /  5.6km/h 3.5mph /  5.6km/h 96% 0.00in /  0mm 0.0 W/m2
01:24 38.8 °F /  3.8 °C 37.8 °F /  3.2 °C 29.84in /  1010.4hPa Calm     96% 0.00in /  0mm 0.0 W/m2
01:29 38.8 °F /  3.8 °C 37.8 °F /  3.2 °C 29.84in /  1010.4hPa Calm     96% 0.00in /  0mm 0.0 W/m2
01:34 38.9 °F /  3.8 °C 37.9 °F /  3.3 °C 29.84in /  1010.4hPa Calm     96% 0.00in /  0mm 0.0 W/m2
01:39 39.0 °F /  3.9 °C 38.0 °F /  3.3 °C 29.84in /  1010.4hPa Calm     96% 0.00in /  0mm 0.0 W/m2
01:44 39.1 °F /  3.9 °C 38.1 °F /  3.4 °C 29.84in /  1010.4hPa Calm     96% 0.00in /  0mm 0.0 W/m2
01:49 39.2 °F /  4 °C 38.2 °F /  3.4 °C 29.84in /  1010.4hPa Calm     96% 0.00in /  0mm 0.0 W/m2
01:54 39.1 °F /  3.9 °C 38.1 °F /  3.4 °C 29.84in /  1010.4hPa Calm     96% 0.00in /  0mm 0.0 W/m2
01:59 39.0 °F /  3.9 °C 38.0 °F /  3.3 °C 29.84in /  1010.4hPa Calm     96% 0.00in /  0mm 0.0 W/m2
02:04 38.9 °F /  3.8 °C 37.9 °F /  3.3 °C 29.84in /  1010.4hPa Calm     96% 0.00in /  0mm 0.0 W/m2
02:09 38.8 °F /  3.8 °C 37.8 °F /  3.2 °C 29.84in /  1010.4hPa Calm     96% 0.00in /  0mm 0.0 W/m2
02:10 38.8 °F /  3.8 °C 37.8 °F /  3.2 °C 29.84in /  1010.4hPa Calm     96% 0.00in /  0mm 0.0 W/m2
02:15 38.7 °F /  3.7 °C 37.7 °F /  3.2 °C 29.84in /  1010.4hPa Calm     96% 0.00in /  0mm 0.0 W/m2
02:20 38.7 °F /  3.7 °C 37.7 °F /  3.2 °C 29.84in /  1010.4hPa Calm     96% 0.00in /  0mm 0.0 W/m2
02:25 38.6 °F /  3.7 °C 37.6 °F /  3.1 °C 29.83in /  1010hPa Calm     96% 0.00in /  0mm 0.0 W/m2
02:30 38.4 °F /  3.6 °C 37.4 °F /  3 °C 29.83in /  1010hPa Calm     96% 0.00in /  0mm 0.0 W/m2
02:35 38.4 °F /  3.6 °C 37.4 °F /  3 °C 29.83in /  1010hPa Calm     96% 0.00in /  0mm 0.0 W/m2
02:40 38.4 °F /  3.6 °C 37.4 °F /  3 °C 29.83in /  1010hPa Calm     96% 0.00in /  0mm 0.0 W/m2
02:45 38.3 °F /  3.5 °C 37.3 °F /  2.9 °C 29.83in /  1010hPa Calm     96% 0.00in /  0mm 0.0 W/m2
02:50 38.3 °F /  3.5 °C 37.3 °F /  2.9 °C 29.83in /  1010hPa Calm     96% 0.00in /  0mm 0.0 W/m2
02:55 38.3 °F /  3.5 °C 37.3 °F /  2.9 °C 29.83in /  1010hPa Calm     96% 0.00in /  0mm 0.0 W/m2
03:00 38.3 °F /  3.5 °C 37.3 °F /  2.9 °C 29.82in /  1009.7hPa Calm     96% 0.00in /  0mm 0.0 W/m2
03:05 38.3 °F /  3.5 °C 37.3 °F /  2.9 °C 29.82in /  1009.7hPa Calm     96% 0.00in /  0mm 0.0 W/m2
03:10 38.3 °F /  3.5 °C 37.3 °F /  2.9 °C 29.82in /  1009.7hPa Calm     96% 0.00in /  0mm 0.0 W/m2
03:15 38.4 °F /  3.6 °C 37.4 °F /  3 °C 29.82in /  1009.7hPa Calm     96% 0.00in /  0mm 0.0 W/m2
03:20 38.4 °F /  3.6 °C 37.4 °F /  3 °C 29.82in /  1009.7hPa Calm     96% 0.00in /  0mm 0.0 W/m2
03:25 38.5 °F /  3.6 °C 37.5 °F /  3.1 °C 29.81in /  1009.4hPa Calm     96% 0.00in /  0mm 0.0 W/m2
03:30 38.5 °F /  3.6 °C 37.5 °F /  3.1 °C 29.82in /  1009.7hPa Calm     96% 0.00in /  0mm 0.0 W/m2
03:35 38.5 °F /  3.6 °C 37.5 °F /  3.1 °C 29.81in /  1009.4hPa Calm     96% 0.00in /  0mm 0.0 W/m2
03:40 38.4 °F /  3.6 °C 37.4 °F /  3 °C 29.81in /  1009.4hPa Calm     96% 0.00in /  0mm 0.0 W/m2
03:45 38.3 °F /  3.5 °C 37.3 °F /  2.9 °C 29.81in /  1009.4hPa Calm     96% 0.00in /  0mm 0.0 W/m2
03:50 38.3 °F /  3.5 °C 37.3 °F /  2.9 °C 29.81in /  1009.4hPa Calm     96% 0.00in /  0mm 0.0 W/m2
03:55 38.4 °F /  3.6 °C 37.4 °F /  3 °C 29.81in /  1009.4hPa Calm     96% 0.00in /  0mm 0.0 W/m2
04:00 38.4 °F /  3.6 °C 37.4 °F /  3 °C 29.81in /  1009.4hPa Calm     96% 0.00in /  0mm 0.0 W/m2
04:05 38.5 °F /  3.6 °C 37.5 °F /  3.1 °C 29.81in /  1009.4hPa Calm     96% 0.00in /  0mm 0.0 W/m2
04:10 38.5 °F /  3.6 °C 37.5 °F /  3.1 °C 29.80in /  1009hPa Calm     96% 0.00in /  0mm 0.0 W/m2
04:15 38.6 °F /  3.7 °C 37.6 °F /  3.1 °C 29.80in /  1009hPa Calm     96% 0.00in /  0mm 0.0 W/m2
04:20 38.7 °F /  3.7 °C 37.9 °F /  3.3 °C 29.80in /  1009hPa Calm     97% 0.00in /  0mm 0.0 W/m2
04:25 38.7 °F /  3.7 °C 37.9 °F /  3.3 °C 29.80in /  1009hPa Calm     97% 0.00in /  0mm 0.0 W/m2
04:30 38.7 °F /  3.7 °C 37.7 °F /  3.2 °C 29.79in /  1008.7hPa Calm     96% 0.00in /  0mm 0.0 W/m2
04:35 38.6 °F /  3.7 °C 37.6 °F /  3.1 °C 29.79in /  1008.7hPa Calm     96% 0.00in /  0mm 0.0 W/m2
04:40 38.6 °F /  3.7 °C 37.6 °F /  3.1 °C 29.79in /  1008.7hPa Calm     96% 0.00in /  0mm 0.0 W/m2
04:45 38.5 °F /  3.6 °C 37.5 °F /  3.1 °C 29.79in /  1008.7hPa Calm     96% 0.00in /  0mm 0.0 W/m2
04:50 38.4 °F /  3.6 °C 37.4 °F /  3 °C 29.79in /  1008.7hPa Calm     96% 0.00in /  0mm 0.0 W/m2
04:55 38.5 °F /  3.6 °C 37.5 °F /  3.1 °C 29.79in /  1008.7hPa Calm     96% 0.00in /  0mm 0.0 W/m2
05:00 38.6 °F /  3.7 °C 37.6 °F /  3.1 °C 29.79in /  1008.7hPa Calm     96% 0.00in /  0mm 0.0 W/m2
05:05 38.6 °F /  3.7 °C 37.6 °F /  3.1 °C 29.78in /  1008.4hPa Calm     96% 0.00in /  0mm 0.0 W/m2
05:10 38.6 °F /  3.7 °C 37.6 °F /  3.1 °C 29.78in /  1008.4hPa North 4.6mph /  7.4km/h 4.6mph /  7.4km/h 96% 0.00in /  0mm 0.0 W/m2
05:15 38.6 °F /  3.7 °C 37.6 °F /  3.1 °C 29.78in /  1008.4hPa North 3.5mph /  5.6km/h 3.5mph /  5.6km/h 96% 0.00in /  0mm 0.0 W/m2
05:20 38.5 °F /  3.6 °C 37.7 °F /  3.2 °C 29.78in /  1008.4hPa North 3.5mph /  5.6km/h 3.5mph /  5.6km/h 97% 0.00in /  0mm 0.0 W/m2
05:25 38.4 °F /  3.6 °C 37.6 °F /  3.1 °C 29.78in /  1008.4hPa North 3.5mph /  5.6km/h 3.5mph /  5.6km/h 97% 0.00in /  0mm 0.0 W/m2
05:30 38.6 °F /  3.7 °C 37.8 °F /  3.2 °C 29.78in /  1008.4hPa Calm     97% 0.00in /  0mm 0.0 W/m2
05:35 38.7 °F /  3.7 °C 37.9 °F /  3.3 °C 29.78in /  1008.4hPa Calm     97% 0.00in /  0mm 0.0 W/m2
05:40 38.7 °F /  3.7 °C 37.9 °F /  3.3 °C 29.78in /  1008.4hPa Calm     97% 0.00in /  0mm 0.0 W/m2
05:45 38.7 °F /  3.7 °C 37.9 °F /  3.3 °C 29.78in /  1008.4hPa Calm     97% 0.00in /  0mm 0.0 W/m2
05:50 38.7 °F /  3.7 °C 37.9 °F /  3.3 °C 29.78in /  1008.4hPa Calm     97% 0.00in /  0mm 0.0 W/m2
05:55 38.7 °F /  3.7 °C 37.9 °F /  3.3 °C 29.78in /  1008.4hPa North 4.6mph /  7.4km/h 4.6mph /  7.4km/h 97% 0.00in /  0mm 0.0 W/m2
06:00 38.7 °F /  3.7 °C 37.9 °F /  3.3 °C 29.78in /  1008.4hPa North 5.8mph /  9.3km/h 5.8mph /  9.3km/h 97% 0.00in /  0mm 0.0 W/m2
06:05 38.7 °F /  3.7 °C 37.9 °F /  3.3 °C 29.78in /  1008.4hPa North 5.8mph /  9.3km/h 5.8mph /  9.3km/h 97% 0.00in /  0mm 0.0 W/m2
06:10 38.8 °F /  3.8 °C 38.0 °F /  3.3 °C 29.78in /  1008.4hPa North 5.8mph /  9.3km/h 5.8mph /  9.3km/h 97% 0.00in /  0mm 0.0 W/m2
06:15 38.8 °F /  3.8 °C 38.0 °F /  3.3 °C 29.78in /  1008.4hPa North 4.6mph /  7.4km/h 4.6mph /  7.4km/h 97% 0.00in /  0mm 0.0 W/m2
06:20 38.8 °F /  3.8 °C 38.0 °F /  3.3 °C 29.79in /  1008.7hPa North 3.5mph /  5.6km/h 3.5mph /  5.6km/h 97% 0.00in /  0mm 0.0 W/m2
06:25 38.8 °F /  3.8 °C 38.0 °F /  3.3 °C 29.78in /  1008.4hPa North 3.5mph /  5.6km/h 3.5mph /  5.6km/h 97% 0.00in /  0mm 0.0 W/m2
06:30 38.8 °F /  3.8 °C 38.0 °F /  3.3 °C 29.78in /  1008.4hPa North 3.5mph /  5.6km/h 3.5mph /  5.6km/h 97% 0.00in /  0mm 0.0 W/m2
06:35 38.8 °F /  3.8 °C 38.0 °F /  3.3 °C 29.79in /  1008.7hPa North 3.5mph /  5.6km/h 3.5mph /  5.6km/h 97% 0.00in /  0mm 0.0 W/m2
06:40 38.9 °F /  3.8 °C 38.1 °F /  3.4 °C 29.79in /  1008.7hPa Calm     97% 0.00in /  0mm 0.0 W/m2
06:45 38.9 °F /  3.8 °C 38.1 °F /  3.4 °C 29.79in /  1008.7hPa Calm     97% 0.00in /  0mm 0.0 W/m2
06:50 38.9 °F /  3.8 °C 38.1 °F /  3.4 °C 29.79in /  1008.7hPa Calm     97% 0.00in /  0mm 0.0 W/m2
06:55 38.8 °F /  3.8 °C 38.0 °F /  3.3 °C 29.79in /  1008.7hPa North 4.0mph /  6.4km/h 4.0mph /  6.4km/h 97% 0.00in /  0mm 0.0 W/m2
07:00 38.8 °F /  3.8 °C 38.0 °F /  3.3 °C 29.78in /  1008.4hPa North 4.6mph /  7.4km/h 4.6mph /  7.4km/h 97% 0.00in /  0mm 0.0 W/m2
07:05 38.8 °F /  3.8 °C 38.0 °F /  3.3 °C 29.78in /  1008.4hPa North 5.8mph /  9.3km/h 5.8mph /  9.3km/h 97% 0.00in /  0mm 0.0 W/m2
07:10 38.8 °F /  3.8 °C 38.0 °F /  3.3 °C 29.78in /  1008.4hPa North 4.6mph /  7.4km/h 4.6mph /  7.4km/h 97% 0.00in /  0mm 0.0 W/m2
07:15 38.8 °F /  3.8 °C 38.0 °F /  3.3 °C 29.79in /  1008.7hPa North 3.5mph /  5.6km/h 3.5mph /  5.6km/h 97% 0.00in /  0mm 0.0 W/m2
07:20 38.8 °F /  3.8 °C 38.0 °F /  3.3 °C 29.79in /  1008.7hPa North 3.5mph /  5.6km/h 3.5mph /  5.6km/h 97% 0.00in /  0mm 0.0 W/m2
07:25 38.8 °F /  3.8 °C 38.0 °F /  3.3 °C 29.79in /  1008.7hPa North 3.5mph /  5.6km/h 3.5mph /  5.6km/h 97% 0.00in /  0mm 0.0 W/m2
07:30 38.8 °F /  3.8 °C 38.0 °F /  3.3 °C 29.79in /  1008.7hPa North 3.5mph /  5.6km/h 3.5mph /  5.6km/h 97% 0.00in /  0mm 0.0 W/m2
07:35 38.9 °F /  3.8 °C 38.1 °F /  3.4 °C 29.79in /  1008.7hPa North 3.5mph /  5.6km/h 3.5mph /  5.6km/h 97% 0.00in /  0mm 0.0 W/m2
07:40 38.9 °F /  3.8 °C 38.1 °F /  3.4 °C 29.79in /  1008.7hPa Calm     97% 0.00in /  0mm 0.0 W/m2
07:45 39.0 °F /  3.9 °C 38.2 °F /  3.4 °C 29.80in /  1009hPa Calm     97% 0.00in /  0mm 0.0 W/m2
07:50 39.1 °F /  3.9 °C 38.3 °F /  3.5 °C 29.79in /  1008.7hPa Calm     97% 0.00in /  0mm 0.0 W/m2
07:55 39.2 °F /  4 °C 38.4 °F /  3.6 °C 29.79in /  1008.7hPa Calm     97% 0.00in /  0mm 0.0 W/m2
08:00 39.3 °F /  4.1 °C 38.5 °F /  3.6 °C 29.78in /  1008.4hPa Calm     97% 0.00in /  0mm 5.0 W/m2
08:05 39.4 °F /  4.1 °C 38.6 °F /  3.7 °C 29.78in /  1008.4hPa Calm     97% 0.00in /  0mm 9.0 W/m2
08:10 39.4 °F /  4.1 °C 38.6 °F /  3.7 °C 29.78in /  1008.4hPa Calm     97% 0.00in /  0mm 9.0 W/m2
08:15 39.4 °F /  4.1 °C 38.6 °F /  3.7 °C 29.78in /  1008.4hPa Calm     97% 0.00in /  0mm 9.0 W/m2
08:20 39.5 °F /  4.2 °C 38.7 °F /  3.7 °C 29.78in /  1008.4hPa Calm     97% 0.00in /  0mm 11.0 W/m2
08:25 39.5 °F /  4.2 °C 38.7 °F /  3.7 °C 29.78in /  1008.4hPa Calm     97% 0.00in /  0mm 14.0 W/m2
08:30 39.5 °F /  4.2 °C 38.7 °F /  3.7 °C 29.78in /  1008.4hPa Calm     97% 0.00in /  0mm 14.0 W/m2
08:35 39.6 °F /  4.2 °C 38.8 °F /  3.8 °C 29.78in /  1008.4hPa Calm     97% 0.00in /  0mm 26.0 W/m2
08:40 39.7 °F /  4.3 °C 38.9 °F /  3.8 °C 29.79in /  1008.7hPa Calm     97% 0.00in /  0mm 25.0 W/m2
08:45 39.7 °F /  4.3 °C 38.9 °F /  3.8 °C 29.79in /  1008.7hPa Calm     97% 0.00in /  0mm 26.0 W/m2
08:50 39.6 °F /  4.2 °C 38.8 °F /  3.8 °C 29.79in /  1008.7hPa Calm     97% 0.00in /  0mm 23.0 W/m2
08:55 39.6 °F /  4.2 °C 38.8 °F /  3.8 °C 29.80in /  1009hPa Calm     97% 0.00in /  0mm 14.0 W/m2
09:00 39.6 °F /  4.2 °C 38.8 °F /  3.8 °C 29.80in /  1009hPa Calm     97% 0.00in /  0mm 18.0 W/m2
09:05 39.7 °F /  4.3 °C 38.9 °F /  3.8 °C 29.79in /  1008.7hPa Calm     97% 0.00in /  0mm 35.0 W/m2
09:06 39.8 °F /  4.3 °C 39.0 °F /  3.9 °C 29.79in /  1008.7hPa Calm     97% 0.00in /  0mm 37.0 W/m2
09:11 40.0 °F /  4.4 °C 39.2 °F /  4 °C 29.79in /  1008.7hPa Calm     97% 0.00in /  0mm 32.0 W/m2
09:16 40.2 °F /  4.6 °C 39.4 °F /  4.1 °C 29.79in /  1008.7hPa Calm     97% 0.00in /  0mm 30.0 W/m2
09:21 40.4 °F /  4.7 °C 39.6 °F /  4.2 °C 29.79in /  1008.7hPa Calm     97% 0.00in /  0mm 30.0 W/m2
09:26 40.4 °F /  4.7 °C 39.6 °F /  4.2 °C 29.80in /  1009hPa Calm     97% 0.00in /  0mm 28.0 W/m2
09:31 40.4 °F /  4.7 °C 39.6 °F /  4.2 °C 29.80in /  1009hPa Calm     97% 0.00in /  0mm 28.0 W/m2
09:36 40.3 °F /  4.6 °C 39.5 °F /  4.2 °C 29.79in /  1008.7hPa Calm     97% 0.00in /  0mm 30.0 W/m2
09:41 40.3 °F /  4.6 °C 39.5 °F /  4.2 °C 29.79in /  1008.7hPa Calm     97% 0.00in /  0mm 37.0 W/m2
09:46 40.5 °F /  4.7 °C 39.7 °F /  4.3 °C 29.79in /  1008.7hPa Calm     97% 0.00in /  0mm 39.0 W/m2
09:51 40.6 °F /  4.8 °C 39.8 °F /  4.3 °C 29.79in /  1008.7hPa Calm     97% 0.00in /  0mm 37.0 W/m2
09:56 40.6 °F /  4.8 °C 39.8 °F /  4.3 °C 29.80in /  1009hPa Calm     97% 0.00in /  0mm 30.0 W/m2
10:01 40.6 °F /  4.8 °C 39.8 °F /  4.3 °C 29.80in /  1009hPa Calm     97% 0.00in /  0mm 26.0 W/m2
10:06 40.7 °F /  4.8 °C 39.9 °F /  4.4 °C 29.80in /  1009hPa Calm     97% 0.00in /  0mm 28.0 W/m2
10:11 40.7 °F /  4.8 °C 39.9 °F /  4.4 °C 29.80in /  1009hPa Calm     97% 0.00in /  0mm 26.0 W/m2
10:16 40.7 °F /  4.8 °C 39.9 °F /  4.4 °C 29.79in /  1008.7hPa Calm     97% 0.00in /  0mm 32.0 W/m2
10:21 40.8 °F /  4.9 °C 40.0 °F /  4.4 °C 29.79in /  1008.7hPa Calm     97% 0.00in /  0mm 32.0 W/m2
10:26 40.8 °F /  4.9 °C 40.0 °F /  4.4 °C 29.79in /  1008.7hPa Calm     97% 0.00in /  0mm 42.0 W/m2
10:31 40.8 °F /  4.9 °C 40.0 °F /  4.4 °C 29.79in /  1008.7hPa Calm     97% 0.00in /  0mm 39.0 W/m2
10:36 40.8 °F /  4.9 °C 40.0 °F /  4.4 °C 29.79in /  1008.7hPa North 3.5mph /  5.6km/h 3.5mph /  5.6km/h 97% 0.00in /  0mm 30.0 W/m2
10:41 40.8 °F /  4.9 °C 40.0 °F /  4.4 °C 29.79in /  1008.7hPa Calm     97% 0.00in /  0mm 28.0 W/m2
10:46 40.8 °F /  4.9 °C 40.0 °F /  4.4 °C 29.78in /  1008.4hPa Calm     97% 0.00in /  0mm 28.0 W/m2
10:51 40.7 °F /  4.8 °C 39.9 °F /  4.4 °C 29.78in /  1008.4hPa Calm     97% 0.00in /  0mm 30.0 W/m2
10:56 40.7 °F /  4.8 °C 39.9 °F /  4.4 °C 29.78in /  1008.4hPa North 6.0mph /  9.7km/h 6.0mph /  9.7km/h 97% 0.00in /  0mm 21.0 W/m2
11:01 40.6 °F /  4.8 °C 39.8 °F /  4.3 °C 29.79in /  1008.7hPa North 5.8mph /  9.3km/h 5.8mph /  9.3km/h 97% 0.00in /  0mm 14.0 W/m2
11:06 40.5 °F /  4.7 °C 39.7 °F /  4.3 °C 29.79in /  1008.7hPa NNW 5.8mph /  9.3km/h 5.8mph /  9.3km/h 97% 0.00in /  0mm 9.0 W/m2
11:11 40.5 °F /  4.7 °C 39.7 °F /  4.3 °C 29.80in /  1009hPa NW 9.2mph /  14.8km/h 9.2mph /  14.8km/h 97% 0.00in /  0mm 7.0 W/m2
11:16 40.4 °F /  4.7 °C 39.6 °F /  4.2 °C 29.79in /  1008.7hPa NW 10.4mph /  16.7km/h 10.4mph /  16.7km/h 97% 0.00in /  0mm 11.0 W/m2
11:21 40.4 °F /  4.7 °C 39.6 °F /  4.2 °C 29.79in /  1008.7hPa NW 6.9mph /  11.1km/h 6.9mph /  11.1km/h 97% 0.02in /  0.51mm 18.0 W/m2
11:26 40.3 °F /  4.6 °C 39.5 °F /  4.2 °C 29.80in /  1009hPa WNW 7.0mph /  11.3km/h 7.0mph /  11.3km/h 97% 0.03in /  0.76mm 11.0 W/m2
11:31 40.3 °F /  4.6 °C 39.5 °F /  4.2 °C 29.79in /  1008.7hPa WNW 6.9mph /  11.1km/h 6.9mph /  11.1km/h 97% 0.04in /  1.02mm 19.0 W/m2
11:36 40.4 °F /  4.7 °C 39.6 °F /  4.2 °C 29.78in /  1008.4hPa WNW 7.0mph /  11.3km/h 7.0mph /  11.3km/h 97% 0.04in /  1.02mm 26.0 W/m2
11:41 40.4 °F /  4.7 °C 39.6 °F /  4.2 °C 29.78in /  1008.4hPa WNW 8.1mph /  13km/h 8.1mph /  13km/h 97% 0.05in /  1.27mm 28.0 W/m2
11:46 40.5 °F /  4.7 °C 39.7 °F /  4.3 °C 29.78in /  1008.4hPa WNW 5.8mph /  9.3km/h 5.8mph /  9.3km/h 97% 0.05in /  1.27mm 26.0 W/m2
11:51 40.5 °F /  4.7 °C 39.7 °F /  4.3 °C 29.78in /  1008.4hPa WNW 8.1mph /  13km/h 8.1mph /  13km/h 97% 0.06in /  1.52mm 30.0 W/m2
11:56 40.4 °F /  4.7 °C 39.6 °F /  4.2 °C 29.77in /  1008hPa NW 6.9mph /  11.1km/h 6.9mph /  11.1km/h 97% 0.06in /  1.52mm 44.0 W/m2
12:01 40.3 °F /  4.6 °C 39.5 °F /  4.2 °C 29.77in /  1008hPa NW 9.2mph /  14.8km/h 9.2mph /  14.8km/h 97% 0.06in /  1.52mm 33.0 W/m2
12:06 40.2 °F /  4.6 °C 39.4 °F /  4.1 °C 29.77in /  1008hPa NW 9.2mph /  14.8km/h 9.2mph /  14.8km/h 97% 0.06in /  1.52mm 28.0 W/m2
12:11 40.1 °F /  4.5 °C 39.3 °F /  4.1 °C 29.77in /  1008hPa NW 8.1mph /  13km/h 8.1mph /  13km/h 97% 0.06in /  1.52mm 30.0 W/m2
12:16 40.0 °F /  4.4 °C 39.2 °F /  4 °C 29.77in /  1008hPa NW 4.6mph /  7.4km/h 4.6mph /  7.4km/h 97% 0.07in /  1.78mm 28.0 W/m2
12:21 39.9 °F /  4.4 °C 39.1 °F /  3.9 °C 29.77in /  1008hPa NW 11.5mph /  18.5km/h 11.5mph /  18.5km/h 97% 0.05in /  1.27mm 23.0 W/m2
12:26 39.8 °F /  4.3 °C 39.0 °F /  3.9 °C 29.76in /  1007.7hPa NW 11.5mph /  18.5km/h 11.5mph /  18.5km/h 97% 0.05in /  1.27mm 21.0 W/m2
12:31 39.7 °F /  4.3 °C 38.9 °F /  3.8 °C 29.77in /  1008hPa NW 11.5mph /  18.5km/h 11.5mph /  18.5km/h 97% 0.04in /  1.02mm 23.0 W/m2
12:36 39.7 °F /  4.3 °C 38.9 °F /  3.8 °C 29.76in /  1007.7hPa NW 11.5mph /  18.5km/h 11.5mph /  18.5km/h 97% 0.04in /  1.02mm 30.0 W/m2
12:41 39.6 °F /  4.2 °C 38.8 °F /  3.8 °C 29.76in /  1007.7hPa NW 12.7mph /  20.4km/h 12.7mph /  20.4km/h 97% 0.03in /  0.76mm 39.0 W/m2
12:46 39.6 °F /  4.2 °C 38.8 °F /  3.8 °C 29.76in /  1007.7hPa NW 14.0mph /  22.5km/h 14.0mph /  22.5km/h 97% 0.03in /  0.76mm 46.0 W/m2
12:51 39.6 °F /  4.2 °C 38.8 °F /  3.8 °C 29.76in /  1007.7hPa NNW 11.0mph /  17.7km/h 11.0mph /  17.7km/h 97% 0.02in /  0.51mm 81.0 W/m2
12:56 39.7 °F /  4.3 °C 38.9 °F /  3.8 °C 29.76in /  1007.7hPa NW 12.7mph /  20.4km/h 12.7mph /  20.4km/h 97% 0.03in /  0.76mm 74.0 W/m2
13:01 39.6 °F /  4.2 °C 38.8 °F /  3.8 °C 29.76in /  1007.7hPa NW 12.7mph /  20.4km/h 12.7mph /  20.4km/h 97% 0.03in /  0.76mm 70.0 W/m2
13:06 39.5 °F /  4.2 °C 38.7 °F /  3.7 °C 29.76in /  1007.7hPa NW 11.5mph /  18.5km/h 11.5mph /  18.5km/h 97% 0.03in /  0.76mm 47.0 W/m2
13:11 39.4 °F /  4.1 °C 38.6 °F /  3.7 °C 29.77in /  1008hPa NW 12.7mph /  20.4km/h 12.7mph /  20.4km/h 97% 0.03in /  0.76mm 46.0 W/m2
13:16 39.3 °F /  4.1 °C 38.5 °F /  3.6 °C 29.77in /  1008hPa NW 11.5mph /  18.5km/h 11.5mph /  18.5km/h 97% 0.02in /  0.51mm 37.0 W/m2
13:21 39.2 °F /  4 °C 38.4 °F /  3.6 °C 29.77in /  1008hPa WNW 11.5mph /  18.5km/h 11.5mph /  18.5km/h 97% 0.02in /  0.51mm 28.0 W/m2
13:26 39.1 °F /  3.9 °C 38.3 °F /  3.5 °C 29.77in /  1008hPa NW 13.8mph /  22.2km/h 13.8mph /  22.2km/h 97% 0.01in /  0.25mm 26.0 W/m2
13:31 39.1 °F /  3.9 °C 38.3 °F /  3.5 °C 29.77in /  1008hPa NNW 11.5mph /  18.5km/h 11.5mph /  18.5km/h 97% 0.01in /  0.25mm 21.0 W/m2
13:36 38.9 °F /  3.8 °C 38.1 °F /  3.4 °C 29.76in /  1007.7hPa NW 12.0mph /  19.3km/h 12.0mph /  19.3km/h 97% 0.02in /  0.51mm 19.0 W/m2
13:41 38.8 °F /  3.8 °C 38.0 °F /  3.3 °C 29.76in /  1007.7hPa NNW 12.7mph /  20.4km/h 12.7mph /  20.4km/h 97% 0.03in /  0.76mm 19.0 W/m2
13:46 38.7 °F /  3.7 °C 37.9 °F /  3.3 °C 29.77in /  1008hPa NW 12.7mph /  20.4km/h 12.7mph /  20.4km/h 97% 0.04in /  1.02mm 18.0 W/m2
13:51 38.6 °F /  3.7 °C 37.6 °F /  3.1 °C 29.77in /  1008hPa NW 11.5mph /  18.5km/h 11.5mph /  18.5km/h 96% 0.04in /  1.02mm 16.0 W/m2
13:56 38.6 °F /  3.7 °C 37.6 °F /  3.1 °C 29.77in /  1008hPa NW 11.5mph /  18.5km/h 11.5mph /  18.5km/h 96% 0.05in /  1.27mm 12.0 W/m2
14:01 38.4 °F /  3.6 °C 37.6 °F /  3.1 °C 29.77in /  1008hPa NW 11.5mph /  18.5km/h 11.5mph /  18.5km/h 97% 0.06in /  1.52mm 16.0 W/m2
14:06 38.3 °F /  3.5 °C 37.5 °F /  3.1 °C 29.77in /  1008hPa WNW 11.5mph /  18.5km/h 11.5mph /  18.5km/h 97% 0.07in /  1.78mm 21.0 W/m2
14:11 38.3 °F /  3.5 °C 37.5 °F /  3.1 °C 29.77in /  1008hPa NW 11.5mph /  18.5km/h 11.5mph /  18.5km/h 97% 0.07in /  1.78mm 37.0 W/m2
14:16 38.3 °F /  3.5 °C 37.5 °F /  3.1 °C 29.77in /  1008hPa NW 12.7mph /  20.4km/h 12.7mph /  20.4km/h 97% 0.07in /  1.78mm 53.0 W/m2
14:21 38.4 °F /  3.6 °C 37.6 °F /  3.1 °C 29.77in /  1008hPa NW 11.5mph /  18.5km/h 11.5mph /  18.5km/h 97% 0.07in /  1.78mm 79.0 W/m2
14:26 38.5 °F /  3.6 °C 37.7 °F /  3.2 °C 29.77in /  1008hPa WNW 12.0mph /  19.3km/h 12.0mph /  19.3km/h 97% 0.07in /  1.78mm 44.0 W/m2
14:31 38.5 °F /  3.6 °C 37.7 °F /  3.2 °C 29.77in /  1008hPa NW 15.0mph /  24.1km/h 15.0mph /  24.1km/h 97% 0.07in /  1.78mm 28.0 W/m2
14:36 38.3 °F /  3.5 °C 37.5 °F /  3.1 °C 29.77in /  1008hPa NW 14.0mph /  22.5km/h 14.0mph /  22.5km/h 97% 0.06in /  1.52mm 37.0 W/m2
14:41 38.2 °F /  3.4 °C 37.4 °F /  3 °C 29.78in /  1008.4hPa NW 12.7mph /  20.4km/h 12.7mph /  20.4km/h 97% 0.05in /  1.27mm 23.0 W/m2
14:46 38.1 °F /  3.4 °C 37.1 °F /  2.8 °C 29.78in /  1008.4hPa NNW 15.0mph /  24.1km/h 15.0mph /  24.1km/h 96% 0.04in /  1.02mm 23.0 W/m2
14:51 38.0 °F /  3.3 °C 37.0 °F /  2.8 °C 29.78in /  1008.4hPa NW 12.7mph /  20.4km/h 12.7mph /  20.4km/h 96% 0.04in /  1.02mm 26.0 W/m2
14:56 38.0 °F /  3.3 °C 37.0 °F /  2.8 °C 29.78in /  1008.4hPa NW 12.7mph /  20.4km/h 12.7mph /  20.4km/h 96% 0.02in /  0.51mm 33.0 W/m2
15:01 38.0 °F /  3.3 °C 37.0 °F /  2.8 °C 29.78in /  1008.4hPa WNW 13.0mph /  20.9km/h 13.0mph /  20.9km/h 96% 0.01in /  0.25mm 23.0 W/m2
15:06 37.9 °F /  3.3 °C 36.9 °F /  2.7 °C 29.78in /  1008.4hPa NW 12.7mph /  20.4km/h 12.7mph /  20.4km/h 96% 0.00in /  0mm 26.0 W/m2
15:11 37.8 °F /  3.2 °C 36.8 °F /  2.7 °C 29.78in /  1008.4hPa NW 12.7mph /  20.4km/h 12.7mph /  20.4km/h 96% 0.00in /  0mm 28.0 W/m2
15:16 37.8 °F /  3.2 °C 36.8 °F /  2.7 °C 29.79in /  1008.7hPa NW 11.5mph /  18.5km/h 11.5mph /  18.5km/h 96% 0.00in /  0mm 25.0 W/m2
15:21 37.7 °F /  3.2 °C 36.7 °F /  2.6 °C 29.78in /  1008.4hPa NW 15.0mph /  24.1km/h 15.0mph /  24.1km/h 96% 0.00in /  0mm 25.0 W/m2
15:26 37.8 °F /  3.2 °C 36.8 °F /  2.7 °C 29.79in /  1008.7hPa NW 12.7mph /  20.4km/h 12.7mph /  20.4km/h 96% 0.01in /  0.25mm 25.0 W/m2
15:31 37.7 °F /  3.2 °C 36.7 °F /  2.6 °C 29.79in /  1008.7hPa NW 10.4mph /  16.7km/h 10.4mph /  16.7km/h 96% 0.01in /  0.25mm 14.0 W/m2
15:36 37.7 °F /  3.2 °C 36.7 °F /  2.6 °C 29.79in /  1008.7hPa NW 11.5mph /  18.5km/h 11.5mph /  18.5km/h 96% 0.01in /  0.25mm 7.0 W/m2
15:41 37.6 °F /  3.1 °C 36.6 °F /  2.6 °C 29.80in /  1009hPa WNW 11.5mph /  18.5km/h 11.5mph /  18.5km/h 96% 0.01in /  0.25mm 5.0 W/m2
15:46 37.5 °F /  3.1 °C 36.5 °F /  2.5 °C 29.80in /  1009hPa WNW 9.2mph /  14.8km/h 9.2mph /  14.8km/h 96% 0.01in /  0.25mm 5.0 W/m2
15:51 37.4 °F /  3 °C 36.4 °F /  2.4 °C 29.80in /  1009hPa NW 10.0mph /  16.1km/h 10.0mph /  16.1km/h 96% 0.01in /  0.25mm 0.0 W/m2
15:56 37.4 °F /  3 °C 36.4 °F /  2.4 °C 29.80in /  1009hPa NW 11.5mph /  18.5km/h 11.5mph /  18.5km/h 96% 0.01in /  0.25mm 0.0 W/m2
16:01 37.3 °F /  2.9 °C 36.3 °F /  2.4 °C 29.81in /  1009.4hPa WNW 11.5mph /  18.5km/h 11.5mph /  18.5km/h 96% 0.01in /  0.25mm 0.0 W/m2
16:02 37.3 °F /  2.9 °C 36.3 °F /  2.4 °C 29.81in /  1009.4hPa NW 10.4mph /  16.7km/h 10.4mph /  16.7km/h 96% 0.01in /  0.25mm 0.0 W/m2
16:07 37.3 °F /  2.9 °C 36.3 °F /  2.4 °C 29.81in /  1009.4hPa WSW 12.7mph /  20.4km/h 12.7mph /  20.4km/h 96% 0.01in /  0.25mm 0.0 W/m2
16:12 37.2 °F /  2.9 °C 36.2 °F /  2.3 °C 29.81in /  1009.4hPa NW 9.2mph /  14.8km/h 9.2mph /  14.8km/h 96% 0.01in /  0.25mm 0.0 W/m2
16:17 37.2 °F /  2.9 °C 36.2 °F /  2.3 °C 29.82in /  1009.7hPa NW 13.8mph /  22.2km/h 13.8mph /  22.2km/h 96% 0.01in /  0.25mm 0.0 W/m2
16:22 37.1 °F /  2.8 °C 36.1 °F /  2.3 °C 29.82in /  1009.7hPa WNW 10.4mph /  16.7km/h 10.4mph /  16.7km/h 96% 0.01in /  0.25mm 0.0 W/m2
16:27 37.0 °F /  2.8 °C 36.0 °F /  2.2 °C 29.82in /  1009.7hPa WNW 11.5mph /  18.5km/h 11.5mph /  18.5km/h 96% 0.00in /  0mm 0.0 W/m2
16:32 37.0 °F /  2.8 °C 35.7 °F /  2.1 °C 29.82in /  1009.7hPa WNW 11.5mph /  18.5km/h 11.5mph /  18.5km/h 95% 0.00in /  0mm 0.0 W/m2
16:37 36.9 °F /  2.7 °C 35.6 °F /  2 °C 29.82in /  1009.7hPa NW 13.8mph /  22.2km/h 13.8mph /  22.2km/h 95% 0.00in /  0mm 0.0 W/m2
16:42 36.9 °F /  2.7 °C 35.6 °F /  2 °C 29.83in /  1010hPa NW 12.7mph /  20.4km/h 12.7mph /  20.4km/h 95% 0.00in /  0mm 0.0 W/m2
16:47 36.9 °F /  2.7 °C 35.6 °F /  2 °C 29.83in /  1010hPa NW 13.8mph /  22.2km/h 13.8mph /  22.2km/h 95% 0.00in /  0mm 0.0 W/m2
16:52 36.8 °F /  2.7 °C 35.5 °F /  1.9 °C 29.83in /  1010hPa NW 15.0mph /  24.1km/h 15.0mph /  24.1km/h 95% 0.00in /  0mm 0.0 W/m2
16:57 36.7 °F /  2.6 °C 35.4 °F /  1.9 °C 29.83in /  1010hPa WNW 18.4mph /  29.6km/h 18.4mph /  29.6km/h 95% 0.00in /  0mm 0.0 W/m2
17:02 36.6 °F /  2.6 °C 35.3 °F /  1.8 °C 29.84in /  1010.4hPa NW 16.1mph /  25.9km/h 16.1mph /  25.9km/h 95% 0.00in /  0mm 0.0 W/m2
17:07 36.5 °F /  2.5 °C 35.2 °F /  1.8 °C 29.84in /  1010.4hPa NW 13.0mph /  20.9km/h 13.0mph /  20.9km/h 95% 0.00in /  0mm 0.0 W/m2
17:12 36.3 °F /  2.4 °C 35.0 °F /  1.7 °C 29.84in /  1010.4hPa West 19.6mph /  31.5km/h 19.6mph /  31.5km/h 95% 0.00in /  0mm 0.0 W/m2
17:17 36.1 °F /  2.3 °C 34.8 °F /  1.6 °C 29.84in /  1010.4hPa NW 18.4mph /  29.6km/h 18.4mph /  29.6km/h 95% 0.00in /  0mm 0.0 W/m2
17:22 36.0 °F /  2.2 °C 34.7 °F /  1.5 °C 29.85in /  1010.7hPa WNW 17.3mph /  27.8km/h 17.3mph /  27.8km/h 95% 0.00in /  0mm 0.0 W/m2
17:27 35.8 °F /  2.1 °C 34.5 °F /  1.4 °C 29.85in /  1010.7hPa WNW 19.6mph /  31.5km/h 19.6mph /  31.5km/h 95% 0.00in /  0mm 0.0 W/m2
17:32 35.7 °F /  2.1 °C 34.4 °F /  1.3 °C 29.85in /  1010.7hPa WNW 20.7mph /  33.3km/h 20.7mph /  33.3km/h 95% 0.00in /  0mm 0.0 W/m2
17:37 35.7 °F /  2.1 °C 34.4 °F /  1.3 °C 29.85in /  1010.7hPa WNW 24.2mph /  38.9km/h 24.2mph /  38.9km/h 95% 0.00in /  0mm 0.0 W/m2
17:42 35.6 °F /  2 °C 34.3 °F /  1.3 °C 29.85in /  1010.7hPa NW 15.0mph /  24.1km/h 15.0mph /  24.1km/h 95% 0.00in /  0mm 0.0 W/m2
17:47 35.5 °F /  1.9 °C 34.2 °F /  1.2 °C 29.86in /  1011.1hPa NW 17.3mph /  27.8km/h 17.3mph /  27.8km/h 95% 0.00in /  0mm 0.0 W/m2
17:52 35.4 °F /  1.9 °C 34.1 °F /  1.2 °C 29.85in /  1010.7hPa WNW 16.1mph /  25.9km/h 16.1mph /  25.9km/h 95% 0.00in /  0mm 0.0 W/m2
17:57 35.3 °F /  1.8 °C 34.0 °F /  1.1 °C 29.86in /  1011.1hPa WNW 19.6mph /  31.5km/h 19.6mph /  31.5km/h 95% 0.00in /  0mm 0.0 W/m2
18:02 35.2 °F /  1.8 °C 33.9 °F /  1.1 °C 29.86in /  1011.1hPa NW 19.6mph /  31.5km/h 19.6mph /  31.5km/h 95% 0.00in /  0mm 0.0 W/m2
18:07 35.1 °F /  1.7 °C 33.8 °F /  1 °C 29.86in /  1011.1hPa NW 18.4mph /  29.6km/h 18.4mph /  29.6km/h 95% 0.00in /  0mm 0.0 W/m2
18:12 35.0 °F /  1.7 °C 33.7 °F /  0.9 °C 29.86in /  1011.1hPa NW 19.6mph /  31.5km/h 19.6mph /  31.5km/h 95% 0.00in /  0mm 0.0 W/m2
18:17 34.8 °F /  1.6 °C 33.5 °F /  0.8 °C 29.86in /  1011.1hPa NW 15.0mph /  24.1km/h 15.0mph /  24.1km/h 95% 0.00in /  0mm 0.0 W/m2
18:22 34.7 °F /  1.5 °C 33.4 °F /  0.8 °C 29.87in /  1011.4hPa NW 19.6mph /  31.5km/h 19.6mph /  31.5km/h 95% 0.00in /  0mm 0.0 W/m2
18:27 34.6 °F /  1.4 °C 33.3 °F /  0.7 °C 29.87in /  1011.4hPa NW 18.0mph /  29km/h 18.0mph /  29km/h 95% 0.00in /  0mm 0.0 W/m2
18:32 34.5 °F /  1.4 °C 33.2 °F /  0.7 °C 29.87in /  1011.4hPa WNW 12.0mph /  19.3km/h 12.0mph /  19.3km/h 95% 0.00in /  0mm 0.0 W/m2
18:37 34.4 °F /  1.3 °C 33.1 °F /  0.6 °C 29.87in /  1011.4hPa NW 11.5mph /  18.5km/h 11.5mph /  18.5km/h 95% 0.00in /  0mm 0.0 W/m2
18:42 34.3 °F /  1.3 °C 33.0 °F /  0.6 °C 29.87in /  1011.4hPa WNW 13.8mph /  22.2km/h 13.8mph /  22.2km/h 95% 0.00in /  0mm 0.0 W/m2
18:47 34.3 °F /  1.3 °C 33.0 °F /  0.6 °C 29.87in /  1011.4hPa NW 11.5mph /  18.5km/h 11.5mph /  18.5km/h 95% 0.00in /  0mm 0.0 W/m2
18:52 34.2 °F /  1.2 °C 32.9 °F /  0.5 °C 29.87in /  1011.4hPa NW 11.5mph /  18.5km/h 11.5mph /  18.5km/h 95% 0.00in /  0mm 0.0 W/m2
18:57 34.1 °F /  1.2 °C 32.8 °F /  0.4 °C 29.87in /  1011.4hPa WSW 11.5mph /  18.5km/h 11.5mph /  18.5km/h 95% 0.00in /  0mm 0.0 W/m2
19:02 34.0 °F /  1.1 °C 32.7 °F /  0.4 °C 29.87in /  1011.4hPa WNW 17.3mph /  27.8km/h 17.3mph /  27.8km/h 95% 0.00in /  0mm 0.0 W/m2
19:07 33.9 °F /  1.1 °C 32.6 °F /  0.3 °C 29.88in /  1011.7hPa WNW 11.5mph /  18.5km/h 11.5mph /  18.5km/h 95% 0.00in /  0mm 0.0 W/m2
19:12 33.9 °F /  1.1 °C 32.6 °F /  0.3 °C 29.88in /  1011.7hPa NW 11.5mph /  18.5km/h 11.5mph /  18.5km/h 95% 0.00in /  0mm 0.0 W/m2
19:17 33.8 °F /  1 °C 32.5 °F /  0.3 °C 29.88in /  1011.7hPa WNW 11.5mph /  18.5km/h 11.5mph /  18.5km/h 95% 0.00in /  0mm 0.0 W/m2
19:22 33.6 °F /  0.9 °C 32.3 °F /  0.2 °C 29.88in /  1011.7hPa NW 18.4mph /  29.6km/h 18.4mph /  29.6km/h 95% 0.00in /  0mm 0.0 W/m2
19:27 33.5 °F /  0.8 °C 32.0 °F /  0 °C 29.88in /  1011.7hPa West 15.0mph /  24.1km/h 15.0mph /  24.1km/h 94% 0.00in /  0mm 0.0 W/m2
19:32 33.4 °F /  0.8 °C 31.9 °F /  -0.1 °C 29.88in /  1011.7hPa NW 13.8mph /  22.2km/h 13.8mph /  22.2km/h 94% 0.00in /  0mm 0.0 W/m2
19:37 33.3 °F /  0.7 °C 31.8 °F /  -0.1 °C 29.88in /  1011.7hPa NW 19.6mph /  31.5km/h 19.6mph /  31.5km/h 94% 0.00in /  0mm 0.0 W/m2
19:42 33.2 °F /  0.7 °C 31.7 °F /  -0.2 °C 29.89in /  1012.1hPa WNW 12.0mph /  19.3km/h 12.0mph /  19.3km/h 94% 0.00in /  0mm 0.0 W/m2
19:47 32.9 °F /  0.5 °C 31.4 °F /  -0.3 °C 29.88in /  1011.7hPa NW 13.8mph /  22.2km/h 13.8mph /  22.2km/h 94% 0.00in /  0mm 0.0 W/m2
19:52 32.8 °F /  0.4 °C 31.3 °F /  -0.4 °C 29.88in /  1011.7hPa NW 13.0mph /  20.9km/h 13.0mph /  20.9km/h 94% 0.00in /  0mm 0.0 W/m2
19:57 32.7 °F /  0.4 °C 31.2 °F /  -0.4 °C 29.88in /  1011.7hPa WNW 13.8mph /  22.2km/h 13.8mph /  22.2km/h 94% 0.00in /  0mm 0.0 W/m2
20:02 32.5 °F /  0.3 °C 31.0 °F /  -0.6 °C 29.88in /  1011.7hPa WNW 10.0mph /  16.1km/h 10.0mph /  16.1km/h 94% 0.00in /  0mm 0.0 W/m2
20:07 32.3 °F /  0.2 °C 30.5 °F /  -0.8 °C 29.88in /  1011.7hPa WNW 16.1mph /  25.9km/h 16.1mph /  25.9km/h 93% 0.00in /  0mm 0.0 W/m2
20:12 32.2 °F /  0.1 °C 30.4 °F /  -0.9 °C 29.89in /  1012.1hPa NW 18.4mph /  29.6km/h 18.4mph /  29.6km/h 93% 0.00in /  0mm 0.0 W/m2
20:17 32.0 °F /  0 °C 30.2 °F /  -1 °C 29.90in /  1012.4hPa WNW 19.6mph /  31.5km/h 19.6mph /  31.5km/h 93% 0.00in /  0mm 0.0 W/m2
20:22 31.9 °F /  -0.1 °C 29.8 °F /  -1.2 °C 29.90in /  1012.4hPa WNW 12.7mph /  20.4km/h 12.7mph /  20.4km/h 92% 0.00in /  0mm 0.0 W/m2
20:27 31.7 °F /  -0.2 °C 29.6 °F /  -1.3 °C 29.90in /  1012.4hPa NW 17.3mph /  27.8km/h 17.3mph /  27.8km/h 92% 0.00in /  0mm 0.0 W/m2
20:32 31.6 °F /  -0.2 °C 29.3 °F /  -1.5 °C 29.90in /  1012.4hPa West 12.7mph /  20.4km/h 12.7mph /  20.4km/h 91% 0.00in /  0mm 0.0 W/m2
20:37 31.4 °F /  -0.3 °C 29.1 °F /  -1.6 °C 29.90in /  1012.4hPa WNW 11.5mph /  18.5km/h 11.5mph /  18.5km/h 91% 0.00in /  0mm 0.0 W/m2
20:42 31.1 °F /  -0.5 °C 28.2 °F /  -2.1 °C 29.90in /  1012.4hPa NW 19.6mph /  31.5km/h 19.6mph /  31.5km/h 89% 0.00in /  0mm 0.0 W/m2
20:47 31.0 °F /  -0.6 °C 28.1 °F /  -2.2 °C 29.90in /  1012.4hPa West 17.3mph /  27.8km/h 17.3mph /  27.8km/h 89% 0.00in /  0mm 0.0 W/m2
20:52 30.4 °F /  -0.9 °C 27.5 °F /  -2.5 °C 29.90in /  1012.4hPa West 19.6mph /  31.5km/h 19.6mph /  31.5km/h 89% 0.00in /  0mm 0.0 W/m2
20:57 29.8 °F /  -1.2 °C 27.0 °F /  -2.8 °C 29.90in /  1012.4hPa WNW 18.0mph /  29km/h 18.0mph /  29km/h 89% 0.00in /  0mm 0.0 W/m2
21:02 29.3 °F /  -1.5 °C 26.5 °F /  -3.1 °C 29.90in /  1012.4hPa WNW 19.6mph /  31.5km/h 19.6mph /  31.5km/h 89% 0.00in /  0mm 0.0 W/m2
21:07 29.0 °F /  -1.7 °C 26.2 °F /  -3.2 °C 29.90in /  1012.4hPa WSW 19.6mph /  31.5km/h 19.6mph /  31.5km/h 89% 0.00in /  0mm 0.0 W/m2
21:12 28.7 °F /  -1.8 °C 25.9 °F /  -3.4 °C 29.90in /  1012.4hPa West 12.7mph /  20.4km/h 12.7mph /  20.4km/h 89% 0.00in /  0mm 0.0 W/m2
21:17 28.3 °F /  -2.1 °C 25.5 °F /  -3.6 °C 29.90in /  1012.4hPa West 18.4mph /  29.6km/h 18.4mph /  29.6km/h 89% 0.00in /  0mm 0.0 W/m2
21:22 28.3 °F /  -2.1 °C 25.7 °F /  -3.5 °C 29.90in /  1012.4hPa NW 11.5mph /  18.5km/h 11.5mph /  18.5km/h 90% 0.00in /  0mm 0.0 W/m2
21:28 28.2 °F /  -2.1 °C 25.4 °F /  -3.7 °C 29.90in /  1012.4hPa NW 14.0mph /  22.5km/h 14.0mph /  22.5km/h 89% 0.00in /  0mm 0.0 W/m2
21:33 28.0 °F /  -2.2 °C 24.9 °F /  -3.9 °C 29.90in /  1012.4hPa WNW 23.0mph /  37km/h 23.0mph /  37km/h 88% 0.00in /  0mm 0.0 W/m2
21:38 27.8 °F /  -2.3 °C 24.7 °F /  -4.1 °C 29.90in /  1012.4hPa West 17.3mph /  27.8km/h 17.3mph /  27.8km/h 88% 0.00in /  0mm 0.0 W/m2
21:43 27.5 °F /  -2.5 °C 24.1 °F /  -4.4 °C 29.90in /  1012.4hPa WNW 23.0mph /  37km/h 23.0mph /  37km/h 87% 0.00in /  0mm 0.0 W/m2
21:48 27.2 °F /  -2.7 °C 23.8 °F /  -4.6 °C 29.90in /  1012.4hPa NW 18.4mph /  29.6km/h 18.4mph /  29.6km/h 87% 0.00in /  0mm 0.0 W/m2
21:53 27.1 °F /  -2.7 °C 23.5 °F /  -4.7 °C 29.91in /  1012.8hPa NW 14.0mph /  22.5km/h 14.0mph /  22.5km/h 86% 0.00in /  0mm 0.0 W/m2
21:57 26.9 °F /  -2.8 °C 23.5 °F /  -4.7 °C 29.92in /  1013.1hPa WNW 10.4mph /  16.7km/h 10.4mph /  16.7km/h 87% 0.00in /  0mm 0.0 W/m2
22:02 26.8 °F /  -2.9 °C 23.4 °F /  -4.8 °C 29.92in /  1013.1hPa WNW 11.5mph /  18.5km/h 11.5mph /  18.5km/h 87% 0.00in /  0mm 0.0 W/m2
22:07 26.6 °F /  -3 °C 23.3 °F /  -4.8 °C 29.92in /  1013.1hPa NW 12.7mph /  20.4km/h 12.7mph /  20.4km/h 87% 0.00in /  0mm 0.0 W/m2
22:12 26.4 °F /  -3.1 °C 23.1 °F /  -4.9 °C 29.92in /  1013.1hPa NW 11.5mph /  18.5km/h 11.5mph /  18.5km/h 87% 0.00in /  0mm 0.0 W/m2
22:17 26.2 °F /  -3.2 °C 22.9 °F /  -5.1 °C 29.93in /  1013.4hPa West 18.4mph /  29.6km/h 18.4mph /  29.6km/h 87% 0.00in /  0mm 0.0 W/m2
22:22 25.9 °F /  -3.4 °C 22.3 °F /  -5.4 °C 29.93in /  1013.4hPa WNW 12.7mph /  20.4km/h 12.7mph /  20.4km/h 86% 0.00in /  0mm 0.0 W/m2
22:27 25.8 °F /  -3.4 °C 22.2 °F /  -5.4 °C 29.94in /  1013.8hPa NW 15.0mph /  24.1km/h 15.0mph /  24.1km/h 86% 0.00in /  0mm 0.0 W/m2
22:32 25.4 °F /  -3.7 °C 21.5 °F /  -5.8 °C 29.93in /  1013.4hPa WNW 11.5mph /  18.5km/h 11.5mph /  18.5km/h 85% 0.00in /  0mm 0.0 W/m2
22:37 24.9 °F /  -3.9 °C 21.3 °F /  -5.9 °C 29.93in /  1013.4hPa WNW 11.5mph /  18.5km/h 11.5mph /  18.5km/h 86% 0.00in /  0mm 0.0 W/m2
22:42 24.6 °F /  -4.1 °C 21.0 °F /  -6.1 °C 29.94in /  1013.8hPa WNW 18.4mph /  29.6km/h 18.4mph /  29.6km/h 86% 0.00in /  0mm 0.0 W/m2
22:48 24.3 °F /  -4.3 °C 20.4 °F /  -6.4 °C 29.94in /  1013.8hPa West 19.6mph /  31.5km/h 19.6mph /  31.5km/h 85% 0.00in /  0mm 0.0 W/m2
22:53 24.0 °F /  -4.4 °C 19.9 °F /  -6.7 °C 29.94in /  1013.8hPa West 18.4mph /  29.6km/h 18.4mph /  29.6km/h 84% 0.00in /  0mm 0.0 W/m2
22:58 23.8 °F /  -4.6 °C 19.4 °F /  -7 °C 29.95in /  1014.1hPa WSW 18.4mph /  29.6km/h 18.4mph /  29.6km/h 83% 0.00in /  0mm 0.0 W/m2
23:03 23.6 °F /  -4.7 °C 19.5 °F /  -6.9 °C 29.95in /  1014.1hPa NW 14.0mph /  22.5km/h 14.0mph /  22.5km/h 84% 0.00in /  0mm 0.0 W/m2
23:08 23.3 °F /  -4.8 °C 19.2 °F /  -7.1 °C 29.95in /  1014.1hPa WSW 19.6mph /  31.5km/h 19.6mph /  31.5km/h 84% 0.00in /  0mm 0.0 W/m2
23:13 23.1 °F /  -4.9 °C 19.0 °F /  -7.2 °C 29.95in /  1014.1hPa NW 15.0mph /  24.1km/h 15.0mph /  24.1km/h 84% 0.00in /  0mm 0.0 W/m2
23:18 22.8 °F /  -5.1 °C 18.7 °F /  -7.4 °C 29.95in /  1014.1hPa NW 11.5mph /  18.5km/h 11.5mph /  18.5km/h 84% 0.00in /  0mm 0.0 W/m2
23:23 22.5 °F /  -5.3 °C 18.4 °F /  -7.6 °C 29.95in /  1014.1hPa WNW 19.6mph /  31.5km/h 19.6mph /  31.5km/h 84% 0.00in /  0mm 0.0 W/m2
23:28 22.3 °F /  -5.4 °C 18.5 °F /  -7.5 °C 29.95in /  1014.1hPa West 15.0mph /  24.1km/h 15.0mph /  24.1km/h 85% 0.00in /  0mm 0.0 W/m2
23:33 22.1 °F /  -5.5 °C 18.0 °F /  -7.8 °C 29.95in /  1014.1hPa WNW 15.0mph /  24.1km/h 15.0mph /  24.1km/h 84% 0.00in /  0mm 0.0 W/m2
23:38 22.0 °F /  -5.6 °C 17.3 °F /  -8.2 °C 29.95in /  1014.1hPa NW 19.6mph /  31.5km/h 19.6mph /  31.5km/h 82% 0.00in /  0mm 0.0 W/m2
23:43 22.0 °F /  -5.6 °C 17.6 °F /  -8 °C 29.96in /  1014.4hPa WNW 11.5mph /  18.5km/h 11.5mph /  18.5km/h 83% 0.00in /  0mm 0.0 W/m2
23:48 21.7 °F /  -5.7 °C 17.3 °F /  -8.2 °C 29.96in /  1014.4hPa NW 13.8mph /  22.2km/h 13.8mph /  22.2km/h 83% 0.00in /  0mm 0.0 W/m2
23:53 21.3 °F /  -5.9 °C 16.9 °F /  -8.4 °C 29.96in /  1014.4hPa West 17.3mph /  27.8km/h 17.3mph /  27.8km/h 83% 0.00in /  0mm 0.0 W/m2
23:58 21.2 °F /  -6 °C 16.8 °F /  -8.4 °C 29.96in /  1014.4hPa WSW 15.0mph /  24.1km/h 15.0mph /  24.1km/h 83% 0.00in /  0mm 0.0 W/m2
Bourbonnais, Illinois, USA
Compliments of Weather Underground - 4 mb